22°C Temp
10°C Dewpoint
47% Humidity
Temperature
13 KM/H
8 MPH
7 KTS
360°
Due North

Wind Speed
Clear
Conditions
Pressure 1008.92 (hPa) - 29.79 (in)
Visibility 6.2 (mi) - 10.0 (km)

Current Conditions
LIME
Location 20(km)
Metar :LIME 070120Z 36007KT 330V030 CAVOK 22/10 Q1009 NOSIG
Tue 7th July 03:20 am

Airport
  Metar Aviation API Data Provided by https://www.checkwx.com/ PHP scripts by weather34.com ©2020